Buoy 13519

sailwx.info

Track history (hours):
 
Tides and Currents Weather Stations Pressure Air Temp Water Temp Dewpoint Dewpoint Depression Visibility Wind Speed Wind Dir Waves Ship Positions

Drifting buoy 13519

Last reported at 2015-Mar-30 10:00 UTC. Time now 2015-Mar-30 10:42 UTC.
Position N 16°18' W 031°07'.

Barometer 1017.2 mb
Water temperature 22.3 ° C

Date/timePositionNaut miles runAvg speedWind from/ knotsBaromVisibWave heightAir tempDewpointWater temp
2015-Mar-30 10:00N 16°18' W 031°07'0 0.0 1017.2 22.3
2015-Mar-30 08:00N 16°18' W 031°07'1 1.3 1015.8 22.2
2015-Mar-30 07:00N 16°18' W 031°06'2 0.8 1015.1 22.2
2015-Mar-30 05:00N 16°18' W 031°04'2 1.7 1015.3 22.3
2015-Mar-30 04:00N 16°18' W 031°06'0 0.0 1016.0 22.3
2015-Mar-30 03:00N 16°18' W 031°06'0 0.2 1016.1 22.3
2015-Mar-30 02:00N 16°18' W 031°06'0 0.0 1016.8 22.3
2015-Mar-30 01:00N 16°18' W 031°06'2 1.2 1018.1 22.3
2015-Mar-29 23:00N 16°17' W 031°04'0 0.0 1018.0 22.3
2015-Mar-29 22:00N 16°17' W 031°04'0 0.0 1017.5 22.3
2015-Mar-29 20:00N 16°17' W 031°04'1 1.0 1016.2 22.3
2015-Mar-29 19:00N 16°17' W 031°03'1 0.8 1015.8 22.3
2015-Mar-29 18:00N 16°17' W 031°04'1 0.7 1015.5 22.4
2015-Mar-29 17:00N 16°16' W 031°04'0 0.0 1015.7 22.4
2015-Mar-29 16:00N 16°16' W 031°04'1 1.3 1016.4 22.4
2015-Mar-29 15:00N 16°15' W 031°03'0 0.1 1017.5 22.4
2015-Mar-29 12:00N 16°16' W 031°03'2 1.7 1019.1 22.2
2015-Mar-29 11:00N 16°16' W 031°01'0 0.0 1019.3 22.1
2015-Mar-29 10:00N 16°16' W 031°01'0 0.1 1019.2 22.1
2015-Mar-29 07:00N 16°16' W 031°01'0 0.0 1018.0 22.1
2015-Mar-29 06:00N 16°16' W 031°01'2 1.6 1017.6 22.1
2015-Mar-29 05:00N 16°16' W 030°59'2 1.7 1017.7 22.1
2015-Mar-29 04:00N 16°16' W 031°01'1 0.6 1018.3 22.1
2015-Mar-29 02:00N 16°16' W 031°00'1 0.2 1019.4 22.2
2015-Mar-28 23:00N 16°16' W 030°60'0 0.2 1020.0 22.2
2015-Mar-28 22:00N 16°16' W 030°59'0 0.1 1019.9 22.2
2015-Mar-28 19:00N 16°16' W 030°59'0 0.2 1018.4 22.3
2015-Mar-28 17:00N 16°16' W 030°59'1 0.8 1018.5 22.3
2015-Mar-28 16:00N 16°16' W 030°59'1 0.4 1018.9 22.2
2015-Mar-28 14:00N 16°15' W 030°59'0 0.0 1020.6 22.2
2015-Mar-28 13:00N 16°15' W 030°59'1 0.6 1021.0 22.1
2015-Mar-28 11:00N 16°16' W 030°59'1 0.3 1021.4 22.0
2015-Mar-28 08:00N 16°15' W 030°59'0 0.0 1019.8 22.0
2015-Mar-28 07:00N 16°15' W 030°59'1 0.5 1019.2 22.0
2015-Mar-28 06:00N 16°15' W 030°58'0 0.1 1019.0 22.0
2015-Mar-28 04:00N 16°15' W 030°58'1 0.9 1018.9 22.0
2015-Mar-28 03:00N 16°14' W 030°58'0 0.0 1019.8 22.0
2015-Mar-28 02:00N 16°14' W 030°58'0 0.0 1020.1 22.0
2015-Mar-28 00:00N 16°14' W 030°58'1 1.5 1020.3 22.0
2015-Mar-27 23:00N 16°14' W 030°56'1 1.0 1020.2 22.0
2015-Mar-27 22:00N 16°13' W 030°56'0 0.1 1019.6 22.0
2015-Mar-27 19:00N 16°14' W 030°56'1 0.4 1018.0 22.1
2015-Mar-27 17:00N 16°13' W 030°56'1 0.9 1018.0 22.1
2015-Mar-27 16:00N 16°12' W 030°56'1 0.4 1018.3 22.1
2015-Mar-27 14:00N 16°12' W 030°55'0 0.2 1019.3 22.1
2015-Mar-27 12:00N 16°12' W 030°55'1 1.0 1020.2 22.0
2015-Mar-27 11:00N 16°12' W 030°54'1 0.4 1020.2 22.0
2015-Mar-27 08:00N 16°12' W 030°53'0 0.0 1018.7 22.0
2015-Mar-27 07:00N 16°12' W 030°53'0 0.2 1018.2 22.0
2015-Mar-27 06:00N 16°12' W 030°53'0 0.0 1017.6 22.0
2015-Mar-27 04:00N 16°12' W 030°53'3 0.3 1017.9 22.0
2015-Mar-26 18:00N 16°11' W 030°49'1 0.5 1016.3 22.2
2015-Mar-26 16:00N 16°11' W 030°48'3 0.5 1016.7 22.2
2015-Mar-26 09:00N 16°09' W 030°46'0 0.1 1018.6 22.0
2015-Mar-26 07:00N 16°09' W 030°46'3 0.3 1017.3 22.0
2015-Mar-25 20:00N 16°07' W 030°44'1 1.4 1016.5 22.1
2015-Mar-25 19:00N 16°08' W 030°43'2 0.4 1016.2 22.1
2015-Mar-25 15:00N 16°08' W 030°41'1 0.6 1016.7 22.1
2015-Mar-25 14:00N 16°07' W 030°41'1 0.4 1017.3 22.1
2015-Mar-25 11:00N 16°07' W 030°40'0 0.0 1018.4 22.0
2015-Mar-25 10:00N 16°07' W 030°40'0 0.1 1018.0 22.0
2015-Mar-25 07:00N 16°07' W 030°40'2 0.5 1017.3 22.0
2015-Mar-25 03:00N 16°05' W 030°38'2 0.2 1018.5 22.0
2015-Mar-24 18:00N 16°05' W 030°36'0 0.0 1016.8 22.1
2015-Mar-24 17:00N 16°05' W 030°36'0 0.0 1017.0 22.1
2015-Mar-24 16:00N 16°05' W 030°36'0 0.1 1017.4 22.1
2015-Mar-24 15:00N 16°05' W 030°36'0 0.0 1018.1 22.1
2015-Mar-24 14:00N 16°05' W 030°36'3 1.0 1018.5 22.1
2015-Mar-24 11:00N 16°03' W 030°34'1 0.4 1019.7 22.0
2015-Mar-24 08:00N 16°03' W 030°33'4 0.5 1018.5 22.0
2015-Mar-23 23:00N 16°04' W 030°28'1 0.5 1020.6 22.0
2015-Mar-23 22:00N 16°03' W 030°28'2 0.3 1019.8 22.1
2015-Mar-23 15:00N 16°04' W 030°27'0 0.0 1019.6 22.1
2015-Mar-23 14:00N 16°04' W 030°27'1 0.2 1020.3 22.1
2015-Mar-23 06:00N 16°04' W 030°25'3 1.5 1018.5 22.0
2015-Mar-23 04:00N 16°02' W 030°22'0 0.0 1018.7 22.0
2015-Mar-22 22:00N 16°02' W 030°22'1 0.2 1018.0 22.1
2015-Mar-22 15:00N 16°01' W 030°21'2 0.7 1016.5 22.1
2015-Mar-22 12:00N 16°01' W 030°19'1 0.6 1018.0 22.1
2015-Mar-22 11:00N 16°00' W 030°19'2 0.4 1017.9 22.0
2015-Mar-22 07:00N 16°00' W 030°17'3 1.2 1016.5 22.0
2015-Mar-22 04:00N 15°59' W 030°14'2 0.3 1016.7 22.0
2015-Mar-21 19:00N 15°59' W 030°11'0 0.1 1015.3 22.1
2015-Mar-21 16:00N 15°59' W 030°11'3 0.5 1015.8 22.2
2015-Mar-21 10:00N 15°57' W 030°08'5 0.3 1017.0 22.0
2015-Mar-20 19:00N 15°55' W 030°03'0 0.0 1013.5 22.1
2015-Mar-20 17:00N 15°55' W 030°03'0 0.0 1013.5 22.1
2015-Mar-20 16:00N 15°55' W 030°03'   1014.0 22.1
Track history (hours):
 
Tides and Currents Weather Stations Pressure Air Temp Water Temp Dewpoint Dewpoint Depression Visibility Wind Speed Wind Dir Waves Ship Positions

Drifting buoy 13519

Last reported at 2015-Mar-30 10:00 UTC. Time now 2015-Mar-30 10:42 UTC.
Position N 16°18' W 031°07'.

Barometer 1017.2 mb
Water temperature 22.3 ° C

Date/timePositionNaut miles runAvg speedWind from/ knotsBaromVisibWave heightAir tempDewpointWater temp
2015-Mar-30 10:00N 16°18' W 031°07'0 0.0 1017.2 22.3
2015-Mar-30 08:00N 16°18' W 031°07'1 1.3 1015.8 22.2
2015-Mar-30 07:00N 16°18' W 031°06'2 0.8 1015.1 22.2
2015-Mar-30 05:00N 16°18' W 031°04'2 1.7 1015.3 22.3
2015-Mar-30 04:00N 16°18' W 031°06'0 0.0 1016.0 22.3
2015-Mar-30 03:00N 16°18' W 031°06'0 0.2 1016.1 22.3
2015-Mar-30 02:00N 16°18' W 031°06'0 0.0 1016.8 22.3
2015-Mar-30 01:00N 16°18' W 031°06'2 1.2 1018.1 22.3
2015-Mar-29 23:00N 16°17' W 031°04'0 0.0 1018.0 22.3
2015-Mar-29 22:00N 16°17' W 031°04'0 0.0 1017.5 22.3
2015-Mar-29 20:00N 16°17' W 031°04'1 1.0 1016.2 22.3
2015-Mar-29 19:00N 16°17' W 031°03'1 0.8 1015.8 22.3
2015-Mar-29 18:00N 16°17' W 031°04'1 0.7 1015.5 22.4
2015-Mar-29 17:00N 16°16' W 031°04'0 0.0 1015.7 22.4
2015-Mar-29 16:00N 16°16' W 031°04'1 1.3 1016.4 22.4
2015-Mar-29 15:00N 16°15' W 031°03'0 0.1 1017.5 22.4
2015-Mar-29 12:00N 16°16' W 031°03'2 1.7 1019.1 22.2
2015-Mar-29 11:00N 16°16' W 031°01'0 0.0 1019.3 22.1
2015-Mar-29 10:00N 16°16' W 031°01'0 0.1 1019.2 22.1
2015-Mar-29 07:00N 16°16' W 031°01'0 0.0 1018.0 22.1
2015-Mar-29 06:00N 16°16' W 031°01'2 1.6 1017.6 22.1
2015-Mar-29 05:00N 16°16' W 030°59'2 1.7 1017.7 22.1
2015-Mar-29 04:00N 16°16' W 031°01'1 0.6 1018.3 22.1
2015-Mar-29 02:00N 16°16' W 031°00'1 0.2 1019.4 22.2
2015-Mar-28 23:00N 16°16' W 030°60'0 0.2 1020.0 22.2
2015-Mar-28 22:00N 16°16' W 030°59'0 0.1 1019.9 22.2
2015-Mar-28 19:00N 16°16' W 030°59'0 0.2 1018.4 22.3
2015-Mar-28 17:00N 16°16' W 030°59'1 0.8 1018.5 22.3
2015-Mar-28 16:00N 16°16' W 030°59'1 0.4 1018.9 22.2
2015-Mar-28 14:00N 16°15' W 030°59'0 0.0 1020.6 22.2
2015-Mar-28 13:00N 16°15' W 030°59'1 0.6 1021.0 22.1
2015-Mar-28 11:00N 16°16' W 030°59'1 0.3 1021.4 22.0
2015-Mar-28 08:00N 16°15' W 030°59'0 0.0 1019.8 22.0
2015-Mar-28 07:00N 16°15' W 030°59'1 0.5 1019.2 22.0
2015-Mar-28 06:00N 16°15' W 030°58'0 0.1 1019.0 22.0
2015-Mar-28 04:00N 16°15' W 030°58'1 0.9 1018.9 22.0
2015-Mar-28 03:00N 16°14' W 030°58'0 0.0 1019.8 22.0
2015-Mar-28 02:00N 16°14' W 030°58'0 0.0 1020.1 22.0
2015-Mar-28 00:00N 16°14' W 030°58'1 1.5 1020.3 22.0
2015-Mar-27 23:00N 16°14' W 030°56'1 1.0 1020.2 22.0
2015-Mar-27 22:00N 16°13' W 030°56'0 0.1 1019.6 22.0
2015-Mar-27 19:00N 16°14' W 030°56'1 0.4 1018.0 22.1
2015-Mar-27 17:00N 16°13' W 030°56'1 0.9 1018.0 22.1
2015-Mar-27 16:00N 16°12' W 030°56'1 0.4 1018.3 22.1
2015-Mar-27 14:00N 16°12' W 030°55'0 0.2 1019.3 22.1
2015-Mar-27 12:00N 16°12' W 030°55'1 1.0 1020.2 22.0
2015-Mar-27 11:00N 16°12' W 030°54'1 0.4 1020.2 22.0
2015-Mar-27 08:00N 16°12' W 030°53'0 0.0 1018.7 22.0
2015-Mar-27 07:00N 16°12' W 030°53'0 0.2 1018.2 22.0
2015-Mar-27 06:00N 16°12' W 030°53'0 0.0 1017.6 22.0
2015-Mar-27 04:00N 16°12' W 030°53'3 0.3 1017.9 22.0
2015-Mar-26 18:00N 16°11' W 030°49'1 0.5 1016.3 22.2
2015-Mar-26 16:00N 16°11' W 030°48'3 0.5 1016.7 22.2
2015-Mar-26 09:00N 16°09' W 030°46'0 0.1 1018.6 22.0
2015-Mar-26 07:00N 16°09' W 030°46'3 0.3 1017.3 22.0
2015-Mar-25 20:00N 16°07' W 030°44'1 1.4 1016.5 22.1
2015-Mar-25 19:00N 16°08' W 030°43'2 0.4 1016.2 22.1
2015-Mar-25 15:00N 16°08' W 030°41'1 0.6 1016.7 22.1
2015-Mar-25 14:00N 16°07' W 030°41'1 0.4 1017.3 22.1
2015-Mar-25 11:00N 16°07' W 030°40'0 0.0 1018.4 22.0
2015-Mar-25 10:00N 16°07' W 030°40'0 0.1 1018.0 22.0
2015-Mar-25 07:00N 16°07' W 030°40'2 0.5 1017.3 22.0
2015-Mar-25 03:00N 16°05' W 030°38'2 0.2 1018.5 22.0
2015-Mar-24 18:00N 16°05' W 030°36'0 0.0 1016.8 22.1
2015-Mar-24 17:00N 16°05' W 030°36'0 0.0 1017.0 22.1
2015-Mar-24 16:00N 16°05' W 030°36'0 0.1 1017.4 22.1
2015-Mar-24 15:00N 16°05' W 030°36'0 0.0 1018.1 22.1
2015-Mar-24 14:00N 16°05' W 030°36'3 1.0 1018.5 22.1
2015-Mar-24 11:00N 16°03' W 030°34'1 0.4 1019.7 22.0
2015-Mar-24 08:00N 16°03' W 030°33'4 0.5 1018.5 22.0
2015-Mar-23 23:00N 16°04' W 030°28'1 0.5 1020.6 22.0
2015-Mar-23 22:00N 16°03' W 030°28'2 0.3 1019.8 22.1
2015-Mar-23 15:00N 16°04' W 030°27'0 0.0 1019.6 22.1
2015-Mar-23 14:00N 16°04' W 030°27'1 0.2 1020.3 22.1
2015-Mar-23 06:00N 16°04' W 030°25'3 1.5 1018.5 22.0
2015-Mar-23 04:00N 16°02' W 030°22'0 0.0 1018.7 22.0
2015-Mar-22 22:00N 16°02' W 030°22'1 0.2 1018.0 22.1
2015-Mar-22 15:00N 16°01' W 030°21'2 0.7 1016.5 22.1
2015-Mar-22 12:00N 16°01' W 030°19'1 0.6 1018.0 22.1
2015-Mar-22 11:00N 16°00' W 030°19'2 0.4 1017.9 22.0
2015-Mar-22 07:00N 16°00' W 030°17'3 1.2 1016.5 22.0
2015-Mar-22 04:00N 15°59' W 030°14'2 0.3 1016.7 22.0
2015-Mar-21 19:00N 15°59' W 030°11'0 0.1 1015.3 22.1
2015-Mar-21 16:00N 15°59' W 030°11'3 0.5 1015.8 22.2
2015-Mar-21 10:00N 15°57' W 030°08'5 0.3 1017.0 22.0
2015-Mar-20 19:00N 15°55' W 030°03'0 0.0 1013.5 22.1
2015-Mar-20 17:00N 15°55' W 030°03'0 0.0 1013.5 22.1
2015-Mar-20 16:00N 15°55' W 030°03'   1014.0 22.1

Dump ship's entire track history